createdAt,value
2022-11-04T00:00:12.727Z,809.48
2022-11-04T00:01:12.639Z,809.55
2022-11-04T00:02:12.704Z,809.58
2022-11-04T00:03:12.659Z,809.53
2022-11-04T00:04:12.660Z,809.56
2022-11-04T00:05:12.670Z,809.58
2022-11-04T00:06:12.676Z,809.56
2022-11-04T00:07:12.684Z,809.54
2022-11-04T00:08:12.690Z,809.52
2022-11-04T00:09:12.698Z,809.49
2022-11-04T00:10:12.707Z,809.45
2022-11-04T00:11:12.713Z,809.53
2022-11-04T00:12:12.745Z,809.55
2022-11-04T00:13:12.726Z,809.53
2022-11-04T00:14:12.736Z,809.56
2022-11-04T00:15:12.741Z,809.58
2022-11-04T00:16:12.853Z,809.52
2022-11-04T00:17:12.762Z,809.53
2022-11-04T00:18:12.768Z,809.49
2022-11-04T00:19:12.799Z,809.46
2022-11-04T00:20:12.786Z,809.43
2022-11-04T00:21:12.788Z,809.38
2022-11-04T00:22:12.798Z,809.41
2022-11-04T00:23:12.800Z,809.32
2022-11-04T00:24:12.814Z,809.41
2022-11-04T00:25:12.816Z,809.51
2022-11-04T00:26:12.831Z,809.70
2022-11-04T00:27:12.831Z,809.77
2022-11-04T00:28:12.857Z,809.72
2022-11-04T00:29:12.844Z,809.65
2022-11-04T00:30:12.854Z,809.62
2022-11-04T00:31:12.857Z,809.52
2022-11-04T00:32:12.868Z,809.51
2022-11-04T00:33:12.872Z,809.57
2022-11-04T00:34:12.884Z,809.59
2022-11-04T00:35:12.888Z,809.67
2022-11-04T00:36:12.896Z,809.66
2022-11-04T00:37:12.900Z,809.62
2022-11-04T00:38:12.909Z,809.63
2022-11-04T00:39:12.914Z,809.63
2022-11-04T00:40:12.926Z,809.57
2022-11-04T00:41:12.928Z,809.47
2022-11-04T00:42:12.936Z,809.43
2022-11-04T00:43:12.942Z,809.41
2022-11-04T00:44:12.968Z,809.44
2022-11-04T00:45:12.956Z,809.42
2022-11-04T00:46:12.965Z,809.40
2022-11-04T00:47:12.971Z,809.35
2022-11-04T00:48:12.980Z,809.36
2022-11-04T00:49:12.982Z,809.36
2022-11-04T00:50:12.993Z,809.39
2022-11-04T00:52:13.021Z,809.39
2022-11-04T00:53:13.010Z,809.40
2022-11-04T00:54:13.018Z,809.41
2022-11-04T00:55:13.025Z,809.34
2022-11-04T00:56:13.032Z,809.27
2022-11-04T00:57:13.040Z,809.28
2022-11-04T00:58:13.046Z,809.22
2022-11-04T00:59:14.564Z,809.23
2022-11-04T01:00:13.078Z,809.17
2022-11-04T01:01:13.315Z,809.08
2022-11-04T01:02:13.216Z,809.10
2022-11-04T01:03:13.078Z,809.11
2022-11-04T01:04:13.086Z,809.05
2022-11-04T01:05:13.194Z,809.02
2022-11-04T01:06:13.100Z,808.95
2022-11-04T01:07:13.107Z,808.87
2022-11-04T01:08:13.113Z,808.83
2022-11-04T01:09:13.118Z,808.79
2022-11-04T01:10:13.128Z,808.80
2022-11-04T01:11:13.134Z,808.73
2022-11-04T01:12:13.194Z,808.68
2022-11-04T01:13:13.145Z,808.63
2022-11-04T01:14:13.159Z,808.69
2022-11-04T01:15:13.159Z,808.69
2022-11-04T01:16:13.424Z,808.75
2022-11-04T01:17:13.177Z,808.79
2022-11-04T01:18:13.181Z,808.78
2022-11-04T01:19:13.187Z,808.77
2022-11-04T01:20:13.198Z,808.73
2022-11-04T01:21:13.200Z,808.75
2022-11-04T01:22:13.209Z,808.75
2022-11-04T01:23:13.224Z,808.73
2022-11-04T01:24:13.226Z,808.70
2022-11-04T01:25:13.228Z,808.66
2022-11-04T01:26:13.239Z,808.62
2022-11-04T01:27:13.244Z,808.60
2022-11-04T01:28:13.250Z,808.60
2022-11-04T01:29:13.259Z,808.63
2022-11-04T01:30:13.265Z,808.62
2022-11-04T01:31:13.271Z,808.63
2022-11-04T01:32:13.298Z,808.61
2022-11-04T01:33:13.283Z,808.63
2022-11-04T01:34:13.293Z,808.68
2022-11-04T01:35:13.298Z,808.66
2022-11-04T01:36:13.304Z,808.62
2022-11-04T01:37:13.310Z,808.57
2022-11-04T01:38:13.321Z,808.55
2022-11-04T01:39:13.324Z,808.51
2022-11-04T01:40:13.333Z,808.48
2022-11-04T01:41:13.338Z,808.46
2022-11-04T01:42:13.345Z,808.45
2022-11-04T01:43:13.351Z,808.46
2022-11-04T01:44:13.358Z,808.42
2022-11-04T01:45:13.364Z,808.41
2022-11-04T01:46:13.372Z,808.41
2022-11-04T01:47:13.377Z,808.45
2022-11-04T01:48:13.407Z,808.40
2022-11-04T01:49:13.393Z,808.37
2022-11-04T01:50:13.402Z,808.34
2022-11-04T01:51:13.406Z,808.32
2022-11-04T01:52:13.425Z,808.29
2022-11-04T01:53:13.422Z,808.28
2022-11-04T01:54:13.543Z,808.30
2022-11-04T01:55:13.433Z,808.26
2022-11-04T01:56:13.438Z,808.18
2022-11-04T01:57:15.142Z,808.17
2022-11-04T01:58:13.456Z,808.10
2022-11-04T01:59:13.457Z,808.07
2022-11-04T02:00:13.465Z,808.08
2022-11-04T02:01:13.581Z,808.04
2022-11-04T02:02:13.639Z,808.05
2022-11-04T02:03:13.487Z,808.01
2022-11-04T02:04:13.509Z,807.97
2022-11-04T02:05:13.496Z,807.97
2022-11-04T02:06:13.508Z,807.97
2022-11-04T02:07:13.515Z,807.97
2022-11-04T02:08:13.516Z,807.91
2022-11-04T02:09:13.523Z,807.93
2022-11-04T02:10:13.536Z,807.97
2022-11-04T02:11:13.538Z,807.95
2022-11-04T02:12:13.548Z,808.00
2022-11-04T02:13:13.552Z,807.95
2022-11-04T02:14:13.558Z,807.96
2022-11-04T02:15:13.563Z,807.96
2022-11-04T02:16:13.571Z,807.91
2022-11-04T02:17:13.576Z,807.86
2022-11-04T02:18:13.591Z,807.82
2022-11-04T02:19:13.600Z,807.80
2022-11-04T02:20:13.665Z,807.72
2022-11-04T02:21:13.600Z,807.69
2022-11-04T02:22:13.612Z,807.66
2022-11-04T02:23:13.617Z,807.62
2022-11-04T02:24:13.628Z,807.63
2022-11-04T02:25:13.627Z,807.63
2022-11-04T02:26:13.638Z,807.67
2022-11-04T02:27:13.642Z,807.66
2022-11-04T02:28:13.650Z,807.64
2022-11-04T02:29:13.657Z,807.64
2022-11-04T02:30:13.664Z,807.69
2022-11-04T02:31:13.770Z,807.70
2022-11-04T02:32:13.675Z,807.65
2022-11-04T02:33:13.682Z,807.65
2022-11-04T02:34:13.692Z,807.60
2022-11-04T02:35:13.696Z,807.58
2022-11-04T02:36:13.724Z,807.56
2022-11-04T02:37:13.709Z,807.44
2022-11-04T02:38:13.718Z,807.43
2022-11-04T02:39:13.724Z,807.39
2022-11-04T02:40:13.732Z,807.36
2022-11-04T02:41:13.736Z,807.32
2022-11-04T02:42:13.746Z,807.28
2022-11-04T02:43:13.751Z,807.24
2022-11-04T02:44:13.762Z,807.21
2022-11-04T02:45:13.773Z,807.22
2022-11-04T02:46:13.774Z,807.19
2022-11-04T02:47:13.781Z,807.23
2022-11-04T02:48:13.784Z,807.20
2022-11-04T02:49:15.741Z,807.22
2022-11-04T02:50:13.807Z,807.22
2022-11-04T02:51:13.809Z,807.23
2022-11-04T02:52:13.832Z,807.21
2022-11-04T02:53:13.820Z,807.19
2022-11-04T02:54:13.824Z,807.15
2022-11-04T02:55:13.836Z,807.19
2022-11-04T02:56:13.936Z,807.17
2022-11-04T02:57:13.848Z,807.16
2022-11-04T02:58:13.851Z,807.17
2022-11-04T02:59:13.861Z,807.14
2022-11-04T03:00:13.863Z,807.09
2022-11-04T03:01:14.212Z,807.06
2022-11-04T03:02:14.176Z,807.01
2022-11-04T03:03:13.887Z,806.93
2022-11-04T03:04:13.893Z,806.91
2022-11-04T03:05:13.904Z,806.83
2022-11-04T03:06:13.913Z,806.84
2022-11-04T03:07:13.952Z,806.81
2022-11-04T03:08:13.937Z,806.89
2022-11-04T03:09:13.928Z,806.86
2022-11-04T03:10:13.934Z,806.88
2022-11-04T03:11:13.941Z,806.92
2022-11-04T03:12:13.947Z,806.90
2022-11-04T03:13:13.954Z,806.94
2022-11-04T03:14:13.961Z,806.96
2022-11-04T03:15:13.970Z,807.00
2022-11-04T03:16:13.972Z,806.99
2022-11-04T03:17:13.981Z,806.98
2022-11-04T03:18:14.018Z,806.91
2022-11-04T03:19:14.010Z,806.96
2022-11-04T03:20:14.049Z,806.98
2022-11-04T03:21:14.010Z,807.03
2022-11-04T03:22:14.016Z,807.02
2022-11-04T03:23:14.023Z,806.96
2022-11-04T03:24:14.046Z,807.00
2022-11-04T03:25:14.035Z,806.98
2022-11-04T03:26:14.039Z,807.00
2022-11-04T03:27:14.046Z,807.03
2022-11-04T03:28:14.051Z,807.00
2022-11-04T03:29:14.062Z,807.05
2022-11-04T03:30:14.140Z,807.07
2022-11-04T03:31:14.074Z,807.09
2022-11-04T03:32:14.076Z,807.12
2022-11-04T03:33:14.086Z,807.17
2022-11-04T03:34:14.090Z,807.16
2022-11-04T03:35:14.099Z,807.19
2022-11-04T03:36:14.109Z,807.19
2022-11-04T03:37:14.111Z,807.22
2022-11-04T03:38:14.117Z,807.23
2022-11-04T03:39:14.126Z,807.19
2022-11-04T03:40:14.148Z,807.23
2022-11-04T03:41:14.145Z,807.24
2022-11-04T03:42:14.144Z,807.25
2022-11-04T03:43:14.154Z,807.20
2022-11-04T03:44:14.154Z,807.21
2022-11-04T03:45:14.161Z,807.15
2022-11-04T03:46:14.182Z,807.15
2022-11-04T03:47:14.176Z,807.02
2022-11-04T03:48:14.182Z,807.05
2022-11-04T03:49:14.187Z,806.97
2022-11-04T03:50:14.193Z,807.03
2022-11-04T03:51:14.209Z,807.04
2022-11-04T03:52:14.204Z,807.05
2022-11-04T03:53:14.583Z,807.00
2022-11-04T03:54:14.218Z,806.93
2022-11-04T03:55:14.225Z,806.98
2022-11-04T03:56:14.248Z,807.03
2022-11-04T03:57:14.243Z,806.95
2022-11-04T03:58:14.243Z,806.95
2022-11-04T03:59:14.250Z,806.94
2022-11-04T04:00:14.270Z,806.88
2022-11-04T04:01:14.429Z,806.88
2022-11-04T04:02:14.356Z,806.90
2022-11-04T04:03:14.277Z,806.91
2022-11-04T04:04:14.283Z,806.86
2022-11-04T04:05:17.693Z,806.89
2022-11-04T04:06:14.297Z,806.93
2022-11-04T04:07:14.301Z,806.94
2022-11-04T04:08:14.305Z,806.89
2022-11-04T04:09:14.314Z,807.04
2022-11-04T04:10:14.319Z,806.97
2022-11-04T04:11:14.329Z,807.03
2022-11-04T04:12:14.348Z,807.00
2022-11-04T04:13:14.337Z,806.99
2022-11-04T04:14:14.344Z,807.06
2022-11-04T04:15:14.355Z,807.08
2022-11-04T04:16:14.355Z,807.10
2022-11-04T04:17:14.363Z,807.04
2022-11-04T04:18:14.370Z,807.01
2022-11-04T04:19:14.380Z,807.01
2022-11-04T04:20:14.377Z,807.04
2022-11-04T04:21:14.388Z,807.03
2022-11-04T04:22:14.491Z,807.01
2022-11-04T04:23:14.398Z,807.01
2022-11-04T04:24:14.402Z,806.98
2022-11-04T04:25:14.410Z,806.96
2022-11-04T04:26:14.414Z,806.93
2022-11-04T04:27:14.473Z,807.00
2022-11-04T04:28:14.452Z,807.02
2022-11-04T04:29:14.440Z,806.99
2022-11-04T04:30:14.441Z,806.99
2022-11-04T04:31:14.449Z,806.99
2022-11-04T04:32:14.551Z,807.02
2022-11-04T04:33:14.457Z,806.96
2022-11-04T04:34:14.464Z,806.95
2022-11-04T04:35:14.470Z,806.94
2022-11-04T04:36:14.488Z,806.89
2022-11-04T04:37:14.481Z,806.91
2022-11-04T04:38:14.488Z,806.88
2022-11-04T04:39:14.497Z,806.87
2022-11-04T04:40:14.502Z,806.85
2022-11-04T04:41:14.510Z,806.78
2022-11-04T04:42:14.529Z,806.75
2022-11-04T04:43:14.519Z,806.73
2022-11-04T04:44:14.545Z,806.71
2022-11-04T04:45:14.533Z,806.70
2022-11-04T04:46:14.534Z,806.66
2022-11-04T04:47:14.544Z,806.63
2022-11-04T04:48:14.547Z,806.63
2022-11-04T04:49:14.558Z,806.60
2022-11-04T04:50:14.589Z,806.61
2022-11-04T04:51:14.571Z,806.61
2022-11-04T04:52:14.569Z,806.54
2022-11-04T04:53:14.579Z,806.58
2022-11-04T04:54:14.586Z,806.56
2022-11-04T04:55:14.592Z,806.55
2022-11-04T04:56:14.596Z,806.53
2022-11-04T04:57:14.602Z,806.54
2022-11-04T04:58:14.607Z,806.56
2022-11-04T04:59:14.619Z,806.47
2022-11-04T05:00:14.689Z,806.50
2022-11-04T05:01:14.805Z,806.42
2022-11-04T05:02:14.780Z,806.46
2022-11-04T05:03:14.639Z,806.40
2022-11-04T05:04:14.644Z,806.38
2022-11-04T05:06:14.653Z,806.35
2022-11-04T05:07:14.668Z,806.33
2022-11-04T05:08:14.665Z,806.29
2022-11-04T05:09:14.673Z,806.29
2022-11-04T05:10:14.680Z,806.30
2022-11-04T05:11:14.741Z,806.27
2022-11-04T05:12:14.691Z,806.26
2022-11-04T05:13:14.704Z,806.25
2022-11-04T05:14:14.702Z,806.22
2022-11-04T05:15:14.718Z,806.29
2022-11-04T05:16:14.733Z,806.26
2022-11-04T05:17:14.732Z,806.28
2022-11-04T05:18:14.726Z,806.25
2022-11-04T05:19:14.738Z,806.26
2022-11-04T05:20:14.751Z,806.29
2022-11-04T05:21:14.751Z,806.27
2022-11-04T05:22:14.770Z,806.33
2022-11-04T05:23:14.763Z,806.31
2022-11-04T05:24:14.760Z,806.34
2022-11-04T05:25:14.775Z,806.31
2022-11-04T05:26:14.790Z,806.32
2022-11-04T05:27:14.784Z,806.27
2022-11-04T05:28:14.786Z,806.26
2022-11-04T05:30:14.794Z,806.27
2022-11-04T05:31:14.801Z,806.28
2022-11-04T05:32:14.822Z,806.32
2022-11-04T05:33:14.831Z,806.25
2022-11-04T05:34:14.840Z,806.30
2022-11-04T05:35:14.827Z,806.29
2022-11-04T05:36:14.834Z,806.31
2022-11-04T05:37:14.837Z,806.29
2022-11-04T05:38:14.840Z,806.26
2022-11-04T05:39:14.856Z,806.29
2022-11-04T05:40:14.852Z,806.29
2022-11-04T05:41:14.869Z,806.24
2022-11-04T05:42:14.866Z,806.26
2022-11-04T05:43:14.873Z,806.22
2022-11-04T05:44:14.875Z,806.28
2022-11-04T05:45:14.893Z,806.16
2022-11-04T05:46:14.890Z,806.20
2022-11-04T05:47:14.897Z,806.16
2022-11-04T05:48:14.920Z,806.13
2022-11-04T05:49:14.916Z,806.12
2022-11-04T05:50:14.914Z,806.14
2022-11-04T05:51:14.920Z,806.12
2022-11-04T05:52:14.929Z,806.10
2022-11-04T05:53:15.139Z,806.12
2022-11-04T05:54:14.936Z,806.08
2022-11-04T05:55:14.957Z,806.08
2022-11-04T05:56:14.948Z,806.09
2022-11-04T05:57:14.955Z,806.09
2022-11-04T05:58:14.962Z,806.15
2022-11-04T05:59:14.967Z,806.14
2022-11-04T06:00:14.971Z,806.14
2022-11-04T06:01:15.071Z,806.16
2022-11-04T06:02:15.117Z,806.15
2022-11-04T06:03:16.371Z,806.17
2022-11-04T06:04:15.018Z,806.21
2022-11-04T06:05:15.005Z,806.21
2022-11-04T06:06:15.009Z,806.22
2022-11-04T06:07:15.017Z,806.17
2022-11-04T06:08:15.018Z,806.18
2022-11-04T06:09:15.036Z,806.19
2022-11-04T06:10:15.035Z,806.14
2022-11-04T06:11:15.040Z,806.19
2022-11-04T06:12:15.044Z,806.22
2022-11-04T06:13:15.053Z,806.25
2022-11-04T06:14:18.872Z,806.25
2022-11-04T06:15:15.066Z,806.27
2022-11-04T06:16:15.066Z,806.23
2022-11-04T06:17:15.080Z,806.22
2022-11-04T06:18:15.081Z,806.25
2022-11-04T06:19:16.307Z,806.24
2022-11-04T06:20:15.149Z,806.22
2022-11-04T06:21:15.099Z,806.18
2022-11-04T06:22:15.103Z,806.18
2022-11-04T06:23:15.111Z,806.19
2022-11-04T06:24:15.117Z,806.22
2022-11-04T06:25:15.138Z,806.18
2022-11-04T06:26:15.138Z,806.19
2022-11-04T06:27:15.135Z,806.17
2022-11-04T06:28:15.136Z,806.18
2022-11-04T06:29:15.147Z,806.15
2022-11-04T06:30:15.151Z,806.19
2022-11-04T06:31:15.158Z,806.11
2022-11-04T06:32:15.181Z,806.17
2022-11-04T06:33:15.171Z,806.17
2022-11-04T06:34:15.173Z,806.12
2022-11-04T06:35:15.179Z,806.08
2022-11-04T06:36:15.202Z,806.04
2022-11-04T06:37:15.193Z,806.05
2022-11-04T06:38:15.199Z,806.04
2022-11-04T06:39:15.204Z,806.06
2022-11-04T06:40:15.211Z,806.06
2022-11-04T06:41:15.215Z,806.13
2022-11-04T06:42:15.219Z,806.08
2022-11-04T06:43:15.227Z,806.12
2022-11-04T06:44:15.230Z,806.14
2022-11-04T06:45:15.239Z,806.16
2022-11-04T06:46:15.243Z,806.08
2022-11-04T06:47:16.778Z,806.11
2022-11-04T06:48:15.255Z,806.02
2022-11-04T06:49:15.265Z,806.03
2022-11-04T06:50:15.270Z,806.04
2022-11-04T06:51:15.278Z,806.03
2022-11-04T06:52:15.307Z,806.06
2022-11-04T06:53:15.285Z,806.10
2022-11-04T06:54:15.292Z,806.08
2022-11-04T06:55:15.298Z,806.07
2022-11-04T06:56:15.406Z,806.09
2022-11-04T06:57:15.309Z,806.13
2022-11-04T06:58:15.313Z,806.12
2022-11-04T06:59:15.318Z,806.14
2022-11-04T07:00:15.326Z,806.16
2022-11-04T07:01:21.287Z,806.18
2022-11-04T07:02:15.474Z,806.21
2022-11-04T07:03:15.343Z,806.21
2022-11-04T07:04:15.351Z,806.14
2022-11-04T07:05:15.358Z,806.19
2022-11-04T07:06:15.365Z,806.15
2022-11-04T07:07:15.370Z,806.13
2022-11-04T07:08:15.407Z,806.13
2022-11-04T07:09:15.405Z,806.12
2022-11-04T07:10:15.386Z,806.12
2022-11-04T07:11:15.389Z,806.12
2022-11-04T07:12:15.401Z,806.07
2022-11-04T07:13:15.466Z,806.13
2022-11-04T07:14:15.415Z,806.04
2022-11-04T07:15:15.418Z,806.07
2022-11-04T07:16:15.432Z,806.10
2022-11-04T07:17:15.429Z,806.08
2022-11-04T07:18:15.437Z,806.09
2022-11-04T07:19:15.456Z,806.04
2022-11-04T07:20:15.466Z,806.07
2022-11-04T07:21:15.466Z,806.03
2022-11-04T07:22:15.459Z,806.05
2022-11-04T07:23:15.463Z,806.02
2022-11-04T07:24:15.497Z,806.02
2022-11-04T07:25:15.475Z,805.98
2022-11-04T07:26:15.501Z,805.99
2022-11-04T07:27:15.492Z,805.99
2022-11-04T07:28:15.494Z,806.01
2022-11-04T07:29:15.501Z,806.06
2022-11-04T07:30:15.517Z,805.98
2022-11-04T07:31:15.511Z,805.93
2022-11-04T07:32:15.520Z,805.95
2022-11-04T07:33:15.525Z,805.88
2022-11-04T07:34:15.538Z,805.89
2022-11-04T07:35:15.535Z,805.87
2022-11-04T07:36:15.542Z,805.89
2022-11-04T07:37:15.550Z,805.90
2022-11-04T07:38:15.555Z,805.90
2022-11-04T07:39:15.560Z,805.89
2022-11-04T07:40:15.595Z,805.93
2022-11-04T07:41:15.570Z,805.92
2022-11-04T07:42:15.579Z,805.88
2022-11-04T07:43:15.584Z,805.86
2022-11-04T07:44:15.592Z,805.90
2022-11-04T07:45:15.610Z,805.87
2022-11-04T07:46:15.604Z,805.86
2022-11-04T07:47:15.612Z,805.88
2022-11-04T07:48:15.615Z,805.90
2022-11-04T07:49:15.621Z,805.91
2022-11-04T07:50:15.701Z,805.96
2022-11-04T07:51:15.734Z,805.97
2022-11-04T07:52:15.643Z,805.95
2022-11-04T07:53:15.648Z,805.95
2022-11-04T07:54:15.655Z,805.97
2022-11-04T07:55:15.657Z,805.96
2022-11-04T07:56:15.694Z,805.97
2022-11-04T07:57:15.671Z,806.01
2022-11-04T07:58:15.714Z,805.99
2022-11-04T07:59:15.685Z,805.93
2022-11-04T08:00:15.693Z,805.92
2022-11-04T08:01:15.759Z,805.90
2022-11-04T08:02:19.571Z,805.91
2022-11-04T08:03:15.760Z,805.83
2022-11-04T08:04:15.718Z,805.85
2022-11-04T08:05:15.721Z,805.82
2022-11-04T08:06:15.732Z,805.82
2022-11-04T08:07:15.736Z,805.80
2022-11-04T08:08:15.754Z,805.77
2022-11-04T08:09:15.821Z,805.80
2022-11-04T08:10:15.757Z,805.79
2022-11-04T08:11:17.791Z,805.77
2022-11-04T08:12:15.809Z,805.74
2022-11-04T08:13:15.780Z,805.71
2022-11-04T08:14:15.783Z,805.80
2022-11-04T08:15:15.789Z,805.74
2022-11-04T08:16:15.797Z,805.83
2022-11-04T08:17:15.803Z,805.84
2022-11-04T08:18:15.811Z,805.87
2022-11-04T08:19:15.819Z,805.90
2022-11-04T08:20:15.828Z,805.84
2022-11-04T08:21:15.829Z,805.87
2022-11-04T08:22:15.836Z,805.88
2022-11-04T08:23:15.845Z,805.87
2022-11-04T08:24:15.851Z,805.91
2022-11-04T08:25:15.857Z,805.87
2022-11-04T08:26:15.865Z,805.91
2022-11-04T08:27:15.870Z,805.88
2022-11-04T08:28:15.897Z,805.87
2022-11-04T08:29:15.888Z,805.83
2022-11-04T08:30:15.904Z,805.81
2022-11-04T08:31:15.899Z,805.82
2022-11-04T08:32:15.906Z,805.81
2022-11-04T08:33:15.910Z,805.81
2022-11-04T08:34:15.921Z,805.81
2022-11-04T08:35:15.941Z,805.81
2022-11-04T08:36:15.931Z,805.80
2022-11-04T08:37:15.935Z,805.78
2022-11-04T08:38:15.957Z,805.78
2022-11-04T08:39:15.956Z,805.80
2022-11-04T08:40:15.960Z,805.74
2022-11-04T08:41:15.970Z,805.75
2022-11-04T08:42:15.975Z,805.72
2022-11-04T08:43:15.978Z,805.73
2022-11-04T08:44:16.020Z,805.69
2022-11-04T08:45:15.993Z,805.68
2022-11-04T08:46:16.005Z,805.70
2022-11-04T08:47:16.007Z,805.69
2022-11-04T08:48:16.015Z,805.73
2022-11-04T08:49:20.693Z,805.68
2022-11-04T08:50:16.030Z,805.71
2022-11-04T08:51:16.036Z,805.70
2022-11-04T08:52:16.045Z,805.64
2022-11-04T08:53:16.050Z,805.62
2022-11-04T08:54:16.073Z,805.60
2022-11-04T08:55:16.068Z,805.58
2022-11-04T08:56:16.084Z,805.58
2022-11-04T08:57:16.078Z,805.59
2022-11-04T08:58:16.089Z,805.58
2022-11-04T08:59:16.091Z,805.61
2022-11-04T09:00:16.139Z,805.55
2022-11-04T09:01:16.165Z,805.59
2022-11-04T09:02:16.189Z,805.60
2022-11-04T09:03:16.124Z,805.58
2022-11-04T09:04:16.257Z,805.58
2022-11-04T09:05:16.135Z,805.56
2022-11-04T09:06:16.148Z,805.54
2022-11-04T09:07:16.150Z,805.56
2022-11-04T09:08:16.158Z,805.53
2022-11-04T09:09:16.181Z,805.51
2022-11-04T09:10:16.182Z,805.46
2022-11-04T09:11:16.180Z,805.47
2022-11-04T09:12:16.188Z,805.41
2022-11-04T09:13:16.193Z,805.43
2022-11-04T09:14:16.203Z,805.39
2022-11-04T09:15:16.210Z,805.41
2022-11-04T09:16:16.395Z,805.39
2022-11-04T09:17:16.223Z,805.35
2022-11-04T09:18:16.333Z,805.36
2022-11-04T09:19:16.238Z,805.39
2022-11-04T09:20:16.256Z,805.41
2022-11-04T09:21:16.251Z,805.39
2022-11-04T09:22:16.264Z,805.38
2022-11-04T09:23:16.267Z,805.45
2022-11-04T09:24:16.275Z,805.42
2022-11-04T09:25:16.285Z,805.48
2022-11-04T09:26:16.291Z,805.43
2022-11-04T09:27:16.298Z,805.44
2022-11-04T09:28:16.308Z,805.40
2022-11-04T09:29:16.312Z,805.40
2022-11-04T09:30:16.322Z,805.38
2022-11-04T09:31:16.325Z,805.34
2022-11-04T09:32:16.444Z,805.34
2022-11-04T09:33:16.348Z,805.36
2022-11-04T09:34:16.375Z,805.37
2022-11-04T09:35:16.384Z,805.39
2022-11-04T09:36:16.372Z,805.33
2022-11-04T09:37:16.372Z,805.35
2022-11-04T09:38:16.381Z,805.33
2022-11-04T09:39:16.392Z,805.35
2022-11-04T09:40:16.394Z,805.35
2022-11-04T09:41:16.399Z,805.35
2022-11-04T09:42:16.411Z,805.34
2022-11-04T09:43:16.419Z,805.34
2022-11-04T09:44:16.423Z,805.34
2022-11-04T09:45:24.056Z,805.33
2022-11-04T09:46:16.540Z,805.38
2022-11-04T09:47:21.545Z,805.35
2022-11-04T09:48:16.616Z,805.33
2022-11-04T09:49:16.469Z,805.34
2022-11-04T09:50:16.470Z,805.30
2022-11-04T09:51:39.823Z,805.35
2022-11-04T09:52:16.487Z,805.32
2022-11-04T09:53:16.491Z,805.32
2022-11-04T09:54:16.501Z,805.35
2022-11-04T09:55:16.508Z,805.37
2022-11-04T09:56:16.513Z,805.37
2022-11-04T09:57:16.533Z,805.35
2022-11-04T09:58:16.618Z,805.35
2022-11-04T09:59:16.533Z,805.36
2022-11-04T10:00:16.544Z,805.36
2022-11-04T10:01:16.713Z,805.30
2022-11-04T10:02:21.832Z,805.33
2022-11-04T10:03:16.563Z,805.29
2022-11-04T10:04:16.720Z,805.27
2022-11-04T10:05:16.578Z,805.29
2022-11-04T10:06:16.587Z,805.31
2022-11-04T10:07:16.593Z,805.24
2022-11-04T10:08:16.602Z,805.26
2022-11-04T10:09:16.608Z,805.23
2022-11-04T10:10:16.618Z,805.23
2022-11-04T10:11:16.624Z,805.20
2022-11-04T10:12:16.632Z,805.16
2022-11-04T10:13:16.638Z,805.15
2022-11-04T10:14:16.650Z,805.11
2022-11-04T10:15:16.654Z,805.08
2022-11-04T10:16:16.671Z,805.09
2022-11-04T10:17:16.667Z,805.10
2022-11-04T10:18:16.679Z,805.10
2022-11-04T10:19:16.693Z,805.06
2022-11-04T10:20:16.793Z,805.07
2022-11-04T10:21:16.696Z,805.12
2022-11-04T10:22:16.714Z,805.13
2022-11-04T10:23:16.709Z,805.13
2022-11-04T10:24:16.720Z,805.13
2022-11-04T10:25:16.727Z,805.14
2022-11-04T10:26:16.739Z,805.14
2022-11-04T10:27:16.741Z,805.12
2022-11-04T10:28:16.753Z,805.12
2022-11-04T10:29:16.758Z,805.15
2022-11-04T10:30:16.777Z,805.07
2022-11-04T10:31:16.773Z,805.08
2022-11-04T10:32:21.941Z,805.04
2022-11-04T10:33:16.788Z,805.04
2022-11-04T10:34:16.810Z,805.04
2022-11-04T10:35:16.804Z,805.04
2022-11-04T10:36:16.912Z,805.00
2022-11-04T10:37:16.814Z,804.96
2022-11-04T10:38:16.830Z,804.98
2022-11-04T10:39:16.838Z,805.01
2022-11-04T10:40:16.851Z,804.94
2022-11-04T10:41:16.853Z,804.97
2022-11-04T10:42:16.858Z,804.95
2022-11-04T10:43:16.861Z,804.91
2022-11-04T10:44:16.879Z,804.95
2022-11-04T10:45:16.878Z,804.99
2022-11-04T10:46:16.888Z,804.94
2022-11-04T10:47:16.897Z,804.91
2022-11-04T10:48:16.901Z,804.94
2022-11-04T10:49:16.907Z,804.90
2022-11-04T10:50:32.388Z,804.88
2022-11-04T10:51:16.922Z,804.85
2022-11-04T10:52:20.638Z,804.84
2022-11-04T10:53:16.938Z,804.81
2022-11-04T10:54:16.951Z,804.82
2022-11-04T10:55:16.952Z,804.81
2022-11-04T10:56:17.058Z,804.82
2022-11-04T10:57:16.968Z,804.82
2022-11-04T10:58:16.977Z,804.78
2022-11-04T10:59:20.205Z,804.80
2022-11-04T11:00:17.002Z,804.80
2022-11-04T11:01:17.382Z,804.82
2022-11-04T11:02:17.035Z,804.81
2022-11-04T11:03:17.013Z,804.82
2022-11-04T11:04:17.023Z,804.82
2022-11-04T11:05:17.030Z,804.81
2022-11-04T11:06:17.034Z,804.81
2022-11-04T11:07:17.042Z,804.78
2022-11-04T11:08:17.072Z,804.78
2022-11-04T11:09:17.057Z,804.75
2022-11-04T11:10:17.068Z,804.71
2022-11-04T11:11:17.080Z,804.71
2022-11-04T11:12:44.683Z,804.69
2022-11-04T11:13:17.087Z,804.73
2022-11-04T11:14:17.097Z,804.70
2022-11-04T11:15:17.117Z,804.70
2022-11-04T11:16:17.115Z,804.71
2022-11-04T11:17:17.122Z,804.70
2022-11-04T11:18:17.128Z,804.68
2022-11-04T11:19:17.136Z,804.73
2022-11-04T11:20:17.220Z,804.73
2022-11-04T11:21:17.150Z,804.71
2022-11-04T11:22:17.157Z,804.72
2022-11-04T11:23:17.167Z,804.70
2022-11-04T11:24:17.199Z,804.75
2022-11-04T11:25:17.182Z,804.75
2022-11-04T11:26:17.189Z,804.75
2022-11-04T11:27:17.202Z,804.74
2022-11-04T11:28:17.204Z,804.72
2022-11-04T11:29:17.213Z,804.70
2022-11-04T11:30:17.219Z,804.66
2022-11-04T11:31:17.231Z,804.70
2022-11-04T11:32:17.236Z,804.68
2022-11-04T11:33:17.246Z,804.65
2022-11-04T11:34:17.254Z,804.64
2022-11-04T11:35:17.262Z,804.67
2022-11-04T11:36:17.266Z,804.66
2022-11-04T11:37:17.275Z,804.62
2022-11-04T11:38:17.286Z,804.63
2022-11-04T11:39:17.294Z,804.64
2022-11-04T11:40:17.317Z,804.59
2022-11-04T11:41:25.879Z,804.59
2022-11-04T11:42:17.315Z,804.64
2022-11-04T11:43:17.327Z,804.62
2022-11-04T11:44:17.332Z,804.62
2022-11-04T11:45:17.340Z,804.66
2022-11-04T11:46:17.349Z,804.68
2022-11-04T11:47:17.358Z,804.66
2022-11-04T11:48:17.363Z,804.66
2022-11-04T11:49:17.377Z,804.61
2022-11-04T11:50:17.383Z,804.62
2022-11-04T11:51:21.850Z,804.65
2022-11-04T11:52:17.396Z,804.62
2022-11-04T11:53:17.408Z,804.62
2022-11-04T11:54:17.416Z,804.59
2022-11-04T11:55:17.427Z,804.60
2022-11-04T11:56:17.467Z,804.61
2022-11-04T11:57:22.310Z,804.54
2022-11-04T12:01:23.905Z,804.50
2022-11-04T12:02:17.593Z,804.48
2022-11-04T12:03:18.186Z,804.50
2022-11-04T12:06:18.144Z,804.53
2022-11-04T12:09:19.015Z,804.53
2022-11-04T12:10:23.995Z,804.49
2022-11-04T12:11:17.558Z,804.50
2022-11-04T12:12:17.589Z,804.51
2022-11-04T12:13:23.726Z,804.48
2022-11-04T12:14:17.580Z,804.49
2022-11-04T12:15:17.590Z,804.52
2022-11-04T12:16:17.602Z,804.48
2022-11-04T12:17:17.605Z,804.47
2022-11-04T12:18:17.617Z,804.50
2022-11-04T12:19:17.623Z,804.50
2022-11-04T12:20:17.669Z,804.52
2022-11-04T12:21:17.640Z,804.53
2022-11-04T12:22:17.646Z,804.53
2022-11-04T12:23:17.658Z,804.53
2022-11-04T12:24:17.661Z,804.51
2022-11-04T12:25:17.671Z,804.50
2022-11-04T12:26:17.681Z,804.50
2022-11-04T12:27:17.691Z,804.48
2022-11-04T12:28:17.729Z,804.53
2022-11-04T12:29:17.707Z,804.54
2022-11-04T12:30:17.714Z,804.51
2022-11-04T12:31:17.723Z,804.50
2022-11-04T12:32:17.729Z,804.53
2022-11-04T12:33:17.758Z,804.53
2022-11-04T12:34:17.745Z,804.53
2022-11-04T12:35:17.760Z,804.53
2022-11-04T12:36:17.774Z,804.58
2022-11-04T12:37:17.775Z,804.61
2022-11-04T12:38:17.780Z,804.59